createdAt,value
2022-10-06T00:00:39.539Z,4.47
2022-10-06T00:03:06.475Z,4.40
2022-10-06T00:05:33.379Z,5.40
2022-10-06T00:08:01.226Z,5.30
2022-10-06T00:10:28.274Z,5.37
2022-10-06T00:12:55.372Z,4.70
2022-10-06T00:15:29.534Z,5.10
2022-10-06T00:17:57.896Z,4.60
2022-10-06T00:20:26.387Z,4.60
2022-10-06T00:22:53.207Z,4.87
2022-10-06T00:25:22.877Z,4.83
2022-10-06T00:27:51.757Z,5.20
2022-10-06T00:30:29.202Z,4.80
2022-10-06T00:32:58.942Z,4.30
2022-10-06T00:35:27.770Z,4.93
2022-10-06T00:37:54.895Z,5.33
2022-10-06T00:40:22.476Z,4.23
2022-10-06T00:43:27.212Z,5.00
2022-10-06T00:45:54.208Z,4.53
2022-10-06T00:48:24.248Z,4.77
2022-10-06T00:50:58.010Z,4.30
2022-10-06T00:53:30.158Z,4.40
2022-10-06T00:55:57.386Z,4.80
2022-10-06T00:58:25.378Z,4.67
2022-10-06T01:00:56.176Z,5.60
2022-10-06T01:03:33.651Z,5.33
2022-10-06T01:06:02.176Z,4.60
2022-10-06T01:08:31.231Z,4.57
2022-10-06T01:10:58.909Z,5.50
2022-10-06T01:13:27.428Z,4.67
2022-10-06T01:15:57.150Z,5.10
2022-10-06T01:18:27.257Z,4.90
2022-10-06T01:21:24.236Z,4.67
2022-10-06T01:23:51.584Z,4.20
2022-10-06T01:26:21.504Z,4.60
2022-10-06T01:28:49.187Z,4.97
2022-10-06T01:31:16.513Z,4.60
2022-10-06T01:33:43.430Z,4.60
2022-10-06T01:36:10.217Z,5.10
2022-10-06T01:38:37.256Z,4.33
2022-10-06T01:41:04.103Z,4.90
2022-10-06T01:43:30.878Z,4.57
2022-10-06T01:45:58.720Z,4.80
2022-10-06T01:48:27.385Z,4.20
2022-10-06T01:50:55.290Z,4.30
2022-10-06T01:53:22.881Z,4.70
2022-10-06T01:55:49.785Z,4.30
2022-10-06T01:58:16.612Z,4.30
2022-10-06T02:00:43.501Z,5.30
2022-10-06T02:03:10.296Z,4.67
2022-10-06T02:05:37.108Z,4.50
2022-10-06T02:08:04.356Z,4.40
2022-10-06T02:10:31.384Z,4.27
2022-10-06T02:12:58.431Z,3.97
2022-10-06T02:15:26.956Z,4.80
2022-10-06T02:17:54.703Z,4.37
2022-10-06T02:20:21.589Z,4.63
2022-10-06T02:22:48.629Z,4.30
2022-10-06T02:25:17.219Z,4.00
2022-10-06T02:27:44.492Z,4.23
2022-10-06T02:30:11.914Z,4.53
2022-10-06T02:32:40.809Z,4.40
2022-10-06T02:35:08.734Z,4.30
2022-10-06T02:37:35.562Z,3.50
2022-10-06T02:40:02.498Z,4.30
2022-10-06T02:42:29.285Z,3.47
2022-10-06T02:44:59.437Z,3.80
2022-10-06T02:47:26.256Z,3.20
2022-10-06T02:49:53.049Z,3.80
2022-10-06T02:52:19.888Z,3.77
2022-10-06T02:54:47.133Z,3.83
2022-10-06T02:57:15.602Z,4.17
2022-10-06T02:59:43.074Z,3.43
2022-10-06T03:02:10.009Z,4.47
2022-10-06T03:04:36.949Z,3.67
2022-10-06T03:07:04.061Z,4.60
2022-10-06T03:09:31.021Z,3.90
2022-10-06T03:11:57.760Z,3.63
2022-10-06T03:14:24.850Z,3.80
2022-10-06T03:16:51.968Z,3.50
2022-10-06T03:19:18.796Z,3.40
2022-10-06T03:21:45.640Z,3.63
2022-10-06T03:24:12.729Z,3.10
2022-10-06T03:26:42.249Z,3.33
2022-10-06T03:29:11.800Z,3.37
2022-10-06T03:31:39.687Z,3.60
2022-10-06T03:34:08.104Z,3.30
2022-10-06T03:36:36.275Z,3.67
2022-10-06T03:39:05.489Z,4.17
2022-10-06T03:41:35.124Z,4.03
2022-10-06T03:44:02.681Z,3.40
2022-10-06T03:46:32.434Z,3.43
2022-10-06T03:49:00.619Z,3.27
2022-10-06T03:51:41.681Z,3.20
2022-10-06T03:54:10.868Z,3.73
2022-10-06T03:56:40.424Z,3.67
2022-10-06T03:59:10.906Z,3.67
2022-10-06T04:01:43.238Z,3.73
2022-10-06T04:04:10.895Z,4.03
2022-10-06T04:06:40.123Z,3.73
2022-10-06T04:09:13.993Z,3.90
2022-10-06T04:11:43.047Z,3.13
2022-10-06T04:14:13.041Z,3.57
2022-10-06T04:16:43.072Z,3.27
2022-10-06T04:19:12.284Z,4.17
2022-10-06T04:21:40.739Z,3.20
2022-10-06T04:24:08.749Z,3.43
2022-10-06T04:26:41.838Z,3.60
2022-10-06T04:29:08.592Z,3.53
2022-10-06T04:31:38.988Z,3.40
2022-10-06T04:34:07.117Z,3.70
2022-10-06T04:36:38.225Z,3.93
2022-10-06T04:39:06.640Z,4.00
2022-10-06T04:41:36.260Z,3.07
2022-10-06T04:44:04.430Z,3.67
2022-10-06T04:46:47.926Z,3.80
2022-10-06T04:49:19.961Z,3.90
2022-10-06T04:51:49.027Z,3.83
2022-10-06T04:54:16.087Z,3.70
2022-10-06T04:56:42.946Z,4.07
2022-10-06T04:59:09.907Z,3.80
2022-10-06T05:01:37.769Z,3.80
2022-10-06T05:04:06.122Z,3.40
2022-10-06T05:06:35.820Z,4.10
2022-10-06T05:09:05.828Z,3.30
2022-10-06T05:11:33.371Z,3.00
2022-10-06T05:14:00.749Z,3.20
2022-10-06T05:16:29.405Z,3.90
2022-10-06T05:18:56.843Z,3.30
2022-10-06T05:21:32.247Z,3.30
2022-10-06T05:23:59.718Z,3.60
2022-10-06T05:26:29.888Z,3.50
2022-10-06T05:28:57.229Z,3.80
2022-10-06T05:31:28.495Z,3.53
2022-10-06T05:33:56.394Z,3.23
2022-10-06T05:36:26.397Z,3.27
2022-10-06T05:38:53.575Z,3.07
2022-10-06T05:41:24.131Z,3.30
2022-10-06T05:43:51.656Z,3.63
2022-10-06T05:46:21.066Z,3.80
2022-10-06T05:48:49.494Z,3.33
2022-10-06T05:51:18.263Z,3.10
2022-10-06T05:53:45.929Z,3.90
2022-10-06T05:56:27.547Z,3.43
2022-10-06T05:58:56.014Z,2.93
2022-10-06T06:01:31.738Z,3.53
2022-10-06T06:04:04.037Z,3.70
2022-10-06T06:06:35.358Z,3.60
2022-10-06T06:09:17.006Z,3.30
2022-10-06T06:11:47.414Z,4.10
2022-10-06T06:14:45.115Z,3.20
2022-10-06T06:17:11.935Z,3.83
2022-10-06T06:19:38.737Z,2.87
2022-10-06T06:22:05.544Z,3.63
2022-10-06T06:24:32.344Z,3.77
2022-10-06T06:26:59.107Z,3.20
2022-10-06T06:29:25.932Z,2.83
2022-10-06T06:31:52.791Z,3.47
2022-10-06T06:34:19.657Z,3.50
2022-10-06T06:36:52.121Z,3.57
2022-10-06T06:39:20.026Z,3.20
2022-10-06T06:41:47.173Z,3.60
2022-10-06T06:44:14.629Z,4.03
2022-10-06T06:46:43.615Z,3.70
2022-10-06T06:49:12.076Z,2.97
2022-10-06T06:51:44.005Z,3.03
2022-10-06T06:54:12.983Z,3.20
2022-10-06T06:56:39.839Z,3.63
2022-10-06T06:59:11.953Z,3.00
2022-10-06T07:01:48.762Z,2.63
2022-10-06T07:04:17.628Z,2.83
2022-10-06T07:06:57.133Z,3.53
2022-10-06T07:09:26.077Z,3.50
2022-10-06T07:11:52.988Z,2.47
2022-10-06T07:14:22.538Z,3.23
2022-10-06T07:17:07.861Z,3.27
2022-10-06T07:19:57.541Z,2.80
2022-10-06T07:22:47.423Z,3.20
2022-10-06T07:25:27.016Z,2.90
2022-10-06T07:27:54.352Z,3.47
2022-10-06T07:30:23.916Z,2.80
2022-10-06T07:32:51.998Z,3.30
2022-10-06T07:35:20.437Z,3.00
2022-10-06T07:37:48.569Z,2.60
2022-10-06T07:40:16.196Z,3.40
2022-10-06T07:42:49.294Z,2.83
2022-10-06T07:45:41.672Z,3.23
2022-10-06T07:48:20.065Z,2.57
2022-10-06T07:50:49.392Z,3.23
2022-10-06T07:53:17.771Z,3.03
2022-10-06T07:55:46.661Z,2.83
2022-10-06T07:58:26.159Z,2.60
2022-10-06T08:00:53.209Z,3.37
2022-10-06T08:03:21.165Z,3.27
2022-10-06T08:05:58.509Z,3.10
2022-10-06T08:08:25.429Z,3.63
2022-10-06T08:11:00.382Z,3.00
2022-10-06T08:13:28.401Z,3.20
2022-10-06T08:15:56.602Z,2.60
2022-10-06T08:18:45.360Z,3.00
2022-10-06T08:21:17.651Z,3.20
2022-10-06T08:23:46.670Z,2.93
2022-10-06T08:26:15.057Z,3.20
2022-10-06T08:28:45.872Z,3.00
2022-10-06T08:31:12.973Z,2.70
2022-10-06T08:33:42.565Z,3.10
2022-10-06T08:36:19.070Z,2.90
2022-10-06T08:38:50.538Z,2.90
2022-10-06T08:41:22.272Z,3.53
2022-10-06T08:44:18.097Z,3.60
2022-10-06T08:47:01.302Z,3.60
2022-10-06T08:49:38.488Z,2.77
2022-10-06T08:52:17.263Z,3.27
2022-10-06T08:54:47.142Z,3.20
2022-10-06T08:57:37.296Z,3.10
2022-10-06T09:00:18.046Z,2.53
2022-10-06T09:02:50.220Z,3.40
2022-10-06T09:05:25.324Z,3.40
2022-10-06T09:08:13.921Z,3.03
2022-10-06T09:10:49.617Z,2.40
2022-10-06T09:13:40.270Z,3.20
2022-10-06T09:16:13.528Z,5.70
2022-10-06T09:19:06.850Z,3.63
2022-10-06T09:21:50.053Z,6.53
2022-10-06T09:24:40.487Z,6.03
2022-10-06T09:27:22.267Z,8.97
2022-10-06T09:29:49.951Z,5.60
2022-10-06T09:32:22.218Z,3.40
2022-10-06T09:34:52.054Z,5.40
2022-10-06T09:37:19.393Z,2.77
2022-10-06T09:39:50.311Z,4.03
2022-10-06T09:42:35.603Z,8.70
2022-10-06T09:45:04.948Z,5.13
2022-10-06T09:47:41.799Z,6.10
2022-10-06T09:50:25.181Z,3.87
2022-10-06T09:52:58.203Z,5.17
2022-10-06T09:55:52.152Z,3.10
2022-10-06T09:58:21.958Z,3.27
2022-10-06T10:01:02.926Z,2.80
2022-10-06T10:04:02.083Z,3.63
2022-10-06T10:06:34.552Z,3.60
2022-10-06T10:09:21.921Z,4.33
2022-10-06T10:12:24.519Z,2.80
2022-10-06T10:15:00.359Z,3.77
2022-10-06T10:17:32.349Z,5.20
2022-10-06T10:20:01.383Z,2.53
2022-10-06T10:22:39.876Z,3.20
2022-10-06T10:25:06.819Z,3.00
2022-10-06T10:27:40.161Z,3.20
2022-10-06T10:30:11.464Z,4.40
2022-10-06T10:32:51.531Z,3.67
2022-10-06T10:35:30.324Z,2.80
2022-10-06T10:38:15.799Z,3.00
2022-10-06T10:40:49.210Z,3.63
2022-10-06T10:43:32.546Z,3.23
2022-10-06T10:46:19.576Z,3.30
2022-10-06T10:48:49.831Z,4.00
2022-10-06T10:51:41.231Z,4.67
2022-10-06T10:54:21.464Z,4.00
2022-10-06T10:56:50.895Z,3.60
2022-10-06T10:59:43.841Z,3.30
2022-10-06T11:02:20.688Z,4.00
2022-10-06T11:05:10.350Z,3.90
2022-10-06T11:07:43.882Z,3.40
2022-10-06T11:10:21.886Z,2.80
2022-10-06T11:13:01.402Z,4.23
2022-10-06T11:15:49.153Z,3.23
2022-10-06T11:18:26.106Z,3.40
2022-10-06T11:21:01.283Z,3.67
2022-10-06T11:23:42.967Z,3.70
2022-10-06T11:26:35.938Z,3.13
2022-10-06T11:29:20.752Z,3.40
2022-10-06T11:31:51.512Z,3.43
2022-10-06T11:34:18.431Z,3.90
2022-10-06T11:36:55.142Z,3.50
2022-10-06T11:39:33.048Z,3.40
2022-10-06T11:42:21.555Z,3.63
2022-10-06T11:44:56.585Z,2.87
2022-10-06T11:47:37.633Z,3.00
2022-10-06T11:50:33.502Z,2.80
2022-10-06T11:53:00.905Z,3.67
2022-10-06T11:55:29.098Z,3.50
2022-10-06T11:58:23.417Z,3.30
2022-10-06T12:00:54.699Z,2.10
2022-10-06T12:03:33.368Z,2.60
2022-10-06T12:06:00.968Z,2.17
2022-10-06T12:08:39.533Z,2.00
2022-10-06T12:11:42.312Z,3.30
2022-10-06T12:16:32.301Z,2.97
2022-10-06T12:17:40.571Z,2.10
2022-10-06T12:20:19.408Z,2.37
2022-10-06T12:23:00.737Z,2.13
2022-10-06T12:25:48.869Z,1.90
2022-10-06T12:28:22.735Z,2.10
2022-10-06T12:31:15.810Z,2.90
2022-10-06T12:33:45.786Z,2.30
2022-10-06T12:36:19.028Z,2.10
2022-10-06T12:39:05.121Z,3.07
2022-10-06T12:41:57.476Z,1.60
2022-10-06T12:44:42.536Z,2.07
2022-10-06T12:47:38.472Z,1.60
2022-10-06T12:50:13.407Z,1.80
2022-10-06T12:52:51.630Z,2.40
2022-10-06T12:55:27.728Z,1.90
2022-10-06T12:57:54.616Z,2.33
2022-10-06T13:00:33.175Z,1.90
2022-10-06T13:03:02.664Z,2.37
2022-10-06T13:05:30.272Z,2.37
2022-10-06T13:08:01.879Z,2.57
2022-10-06T13:10:29.984Z,2.63
2022-10-06T13:12:58.167Z,2.00
2022-10-06T13:18:13.055Z,2.30
2022-10-06T13:20:50.686Z,2.50
2022-10-06T13:23:28.014Z,2.50
2022-10-06T13:26:05.558Z,2.27
2022-10-06T13:28:46.198Z,2.60
2022-10-06T13:31:28.034Z,2.60
2022-10-06T13:34:02.810Z,2.40
2022-10-06T13:36:33.302Z,2.47
2022-10-06T13:39:00.731Z,2.03
2022-10-06T13:41:34.932Z,2.23
2022-10-06T13:44:18.810Z,2.37
2022-10-06T13:46:52.821Z,1.90
2022-10-06T13:49:30.345Z,2.30
2022-10-06T13:52:08.757Z,1.90
2022-10-06T13:54:56.794Z,1.90
2022-10-06T13:57:47.475Z,1.80
2022-10-06T14:00:24.732Z,1.70
2022-10-06T14:02:55.257Z,1.70
2022-10-06T14:05:36.893Z,2.20
2022-10-06T14:08:15.332Z,1.30
2022-10-06T14:10:47.234Z,1.67
2022-10-06T14:13:18.842Z,1.60
2022-10-06T14:16:05.399Z,1.50
2022-10-06T14:18:43.932Z,1.23
2022-10-06T14:21:45.710Z,1.50
2022-10-06T14:24:15.607Z,1.20
2022-10-06T14:26:43.949Z,1.20
2022-10-06T14:29:13.569Z,1.67
2022-10-06T14:31:40.449Z,1.03
2022-10-06T14:34:14.382Z,1.50
2022-10-06T14:36:43.088Z,1.40
2022-10-06T14:39:13.098Z,1.10
2022-10-06T14:41:39.952Z,1.47
2022-10-06T14:44:09.977Z,1.40
2022-10-06T14:46:38.061Z,1.30
2022-10-06T14:49:07.551Z,1.20
2022-10-06T14:51:37.008Z,1.40
2022-10-06T14:54:05.422Z,1.30
2022-10-06T14:56:34.743Z,1.10
2022-10-06T14:59:05.489Z,0.83
2022-10-06T15:01:34.922Z,1.17
2022-10-06T15:04:04.981Z,1.20
2022-10-06T15:06:50.807Z,0.90
2022-10-06T15:09:17.639Z,1.30
2022-10-06T15:11:45.350Z,1.00
2022-10-06T15:14:12.143Z,1.03
2022-10-06T15:16:42.244Z,1.20
2022-10-06T15:19:10.980Z,1.23
2022-10-06T15:21:45.222Z,1.17
2022-10-06T15:24:16.186Z,1.03
2022-10-06T15:27:02.337Z,1.00
2022-10-06T15:29:29.970Z,1.40
2022-10-06T15:31:58.686Z,1.27
2022-10-06T15:34:27.923Z,1.03
2022-10-06T15:36:56.340Z,1.23
2022-10-06T15:39:25.786Z,1.07
2022-10-06T15:41:53.089Z,1.50
2022-10-06T15:44:20.449Z,1.33
2022-10-06T15:46:55.264Z,1.27
2022-10-06T15:49:27.329Z,1.10
2022-10-06T15:51:56.825Z,1.37
2022-10-06T15:54:29.442Z,1.10
2022-10-06T15:56:58.373Z,1.60
2022-10-06T15:59:27.023Z,1.07
2022-10-06T16:02:17.057Z,1.40
2022-10-06T16:04:55.615Z,2.00
2022-10-06T16:07:22.632Z,1.30
2022-10-06T16:09:51.552Z,1.70
2022-10-06T16:12:21.437Z,1.70
2022-10-06T16:14:48.284Z,1.90
2022-10-06T16:17:15.319Z,2.07
2022-10-06T16:19:42.440Z,1.40
2022-10-06T16:22:14.375Z,1.17
2022-10-06T16:24:41.277Z,1.40
2022-10-06T16:27:12.822Z,1.50
2022-10-06T16:29:39.641Z,1.40
2022-10-06T16:32:09.166Z,1.63
2022-10-06T16:34:35.977Z,1.60
2022-10-06T16:37:02.795Z,1.37
2022-10-06T16:39:29.642Z,1.50
2022-10-06T16:41:56.375Z,1.57
2022-10-06T16:44:23.323Z,1.60
2022-10-06T16:46:50.150Z,1.67
2022-10-06T16:49:16.999Z,1.40
2022-10-06T16:51:46.167Z,1.77
2022-10-06T16:54:14.628Z,1.40
2022-10-06T16:56:44.744Z,1.30
2022-10-06T16:59:13.033Z,1.50
2022-10-06T17:01:40.386Z,1.50
2022-10-06T17:04:09.849Z,1.97
2022-10-06T17:06:39.365Z,1.50
2022-10-06T17:09:14.506Z,2.10
2022-10-06T17:11:43.414Z,1.50
2022-10-06T17:14:10.734Z,1.47
2022-10-06T17:16:40.892Z,1.43
2022-10-06T17:19:08.180Z,1.50
2022-10-06T17:21:55.695Z,1.27
2022-10-06T17:24:23.106Z,1.87
2022-10-06T17:26:50.410Z,1.63
2022-10-06T17:29:22.161Z,2.00
2022-10-06T17:31:51.740Z,1.83
2022-10-06T17:34:21.842Z,2.97
2022-10-06T17:36:51.795Z,1.67
2022-10-06T17:39:23.026Z,1.00
2022-10-06T17:41:52.574Z,1.37
2022-10-06T17:44:23.743Z,2.10
2022-10-06T17:46:56.940Z,2.20
2022-10-06T17:49:24.878Z,1.40
2022-10-06T17:51:53.570Z,1.87
2022-10-06T17:54:23.345Z,1.70
2022-10-06T17:56:52.504Z,1.83
2022-10-06T17:59:25.118Z,1.90
2022-10-06T18:01:56.623Z,2.07
2022-10-06T18:04:24.315Z,1.50
2022-10-06T18:06:52.995Z,1.63
2022-10-06T18:09:20.551Z,2.00
2022-10-06T18:11:55.727Z,1.90
2022-10-06T18:14:25.805Z,2.40
2022-10-06T18:16:56.909Z,2.30
2022-10-06T18:19:35.457Z,2.47
2022-10-06T18:22:10.123Z,2.43
2022-10-06T18:24:37.950Z,3.03
2022-10-06T18:27:06.401Z,2.63
2022-10-06T18:29:35.585Z,2.50
2022-10-06T18:37:37.087Z,2.93
2022-10-06T18:40:07.019Z,4.00
2022-10-06T18:42:33.941Z,2.60
2022-10-06T18:45:19.360Z,2.83
2022-10-06T18:48:04.544Z,2.90
2022-10-06T18:50:32.377Z,3.23
2022-10-06T18:52:59.193Z,2.70
2022-10-06T18:55:27.863Z,3.70
2022-10-06T18:57:54.752Z,3.33
2022-10-06T19:00:22.040Z,3.00
2022-10-06T19:02:50.574Z,2.90
2022-10-06T19:05:17.588Z,3.30
2022-10-06T19:07:45.240Z,3.27
2022-10-06T19:10:12.269Z,3.43
2022-10-06T19:12:39.104Z,3.20
2022-10-06T19:15:06.408Z,3.30
2022-10-06T19:17:33.915Z,2.73
2022-10-06T19:20:00.684Z,3.30
2022-10-06T19:22:27.557Z,3.50
2022-10-06T19:24:54.336Z,3.50
2022-10-06T19:27:26.300Z,3.47
2022-10-06T19:29:56.425Z,3.07
2022-10-06T19:32:26.181Z,3.47
2022-10-06T19:34:54.890Z,3.30
2022-10-06T19:37:21.739Z,3.43
2022-10-06T19:39:50.243Z,3.10
2022-10-06T19:42:37.261Z,3.60
2022-10-06T19:45:06.413Z,3.93
2022-10-06T19:47:33.525Z,4.07
2022-10-06T19:50:04.754Z,4.13
2022-10-06T19:52:34.981Z,4.20
2022-10-06T19:55:01.876Z,4.03
2022-10-06T19:57:29.508Z,4.60
2022-10-06T19:59:56.429Z,4.50
2022-10-06T20:02:23.430Z,3.53
2022-10-06T20:04:50.640Z,4.27
2022-10-06T20:07:21.593Z,4.67
2022-10-06T20:09:49.045Z,4.90
2022-10-06T20:12:20.888Z,4.10
2022-10-06T20:14:50.584Z,5.03
2022-10-06T20:17:17.617Z,4.80
2022-10-06T20:19:46.520Z,5.33
2022-10-06T20:22:13.663Z,5.33
2022-10-06T20:24:40.429Z,4.90
2022-10-06T20:27:07.255Z,5.67
2022-10-06T20:29:34.703Z,6.30
2022-10-06T20:32:01.546Z,6.17
2022-10-06T20:34:32.034Z,5.40
2022-10-06T20:37:00.168Z,5.53
2022-10-06T20:39:45.544Z,5.60
2022-10-06T20:42:15.158Z,5.70
2022-10-06T20:44:43.152Z,5.13
2022-10-06T20:47:11.355Z,5.57
2022-10-06T20:49:38.239Z,5.97
2022-10-06T20:52:06.060Z,5.30
2022-10-06T20:54:35.692Z,5.13
2022-10-06T20:57:04.797Z,5.90
2022-10-06T20:59:33.220Z,5.63
2022-10-06T21:02:00.312Z,6.03
2022-10-06T21:04:27.853Z,5.40
2022-10-06T21:06:54.900Z,5.37
2022-10-06T21:09:22.814Z,5.70
2022-10-06T21:11:50.090Z,5.13
2022-10-06T21:14:17.744Z,6.70
2022-10-06T21:16:46.635Z,5.63
2022-10-06T21:19:16.231Z,5.60
2022-10-06T21:21:45.953Z,5.37
2022-10-06T21:24:13.236Z,6.60
2022-10-06T21:26:42.472Z,5.70
2022-10-06T21:29:16.213Z,5.57
2022-10-06T21:31:44.535Z,5.43
2022-10-06T21:34:11.825Z,6.30
2022-10-06T21:36:39.044Z,7.60
2022-10-06T21:39:06.519Z,6.90
2022-10-06T21:41:38.883Z,5.40
2022-10-06T21:44:14.499Z,6.20
2022-10-06T21:46:54.417Z,6.00
2022-10-06T21:49:23.501Z,6.70
2022-10-06T21:51:55.421Z,6.53
2022-10-06T21:54:23.431Z,6.73
2022-10-06T21:56:50.446Z,7.33
2022-10-06T21:59:17.809Z,7.33
2022-10-06T22:01:46.804Z,6.10
2022-10-06T22:04:14.989Z,7.10
2022-10-06T22:06:43.339Z,7.60
2022-10-06T22:09:14.184Z,6.40
2022-10-06T22:11:41.109Z,6.90
2022-10-06T22:14:13.240Z,8.13
2022-10-06T22:16:40.699Z,6.67
2022-10-06T22:19:10.668Z,6.70
2022-10-06T22:21:40.097Z,6.63
2022-10-06T22:24:12.358Z,5.87
2022-10-06T22:26:41.452Z,7.90
2022-10-06T22:29:11.375Z,7.30
2022-10-06T22:31:41.515Z,5.80
2022-10-06T22:34:11.093Z,7.60
2022-10-06T22:36:37.994Z,6.63
2022-10-06T22:39:05.100Z,7.30
2022-10-06T22:41:32.026Z,6.40
2022-10-06T22:43:59.712Z,7.53
2022-10-06T22:46:29.321Z,6.40
2022-10-06T22:48:56.769Z,6.37
2022-10-06T22:51:24.212Z,6.83
2022-10-06T22:53:59.715Z,6.80
2022-10-06T22:56:28.495Z,6.50
2022-10-06T22:58:57.055Z,6.30
2022-10-06T23:02:04.692Z,6.67
2022-10-06T23:04:31.607Z,6.45
2022-10-06T23:06:58.435Z,6.47
2022-10-06T23:09:25.331Z,7.37
2022-10-06T23:11:52.149Z,6.97
2022-10-06T23:14:19.156Z,6.40
2022-10-06T23:16:46.097Z,6.87
2022-10-06T23:19:13.146Z,6.17
2022-10-06T23:21:40.405Z,6.43
2022-10-06T23:24:08.221Z,6.17
2022-10-06T23:26:35.161Z,6.40
2022-10-06T23:29:02.143Z,6.30
2022-10-06T23:31:29.974Z,6.43
2022-10-06T23:33:56.930Z,5.90
2022-10-06T23:36:23.822Z,6.53
2022-10-06T23:38:50.726Z,6.17
2022-10-06T23:41:17.900Z,5.53
2022-10-06T23:43:45.143Z,6.30
2022-10-06T23:46:12.519Z,6.47
2022-10-06T23:48:39.587Z,6.20
2022-10-06T23:51:08.702Z,5.40
2022-10-06T23:53:36.288Z,7.13
2022-10-06T23:56:04.215Z,6.13
2022-10-06T23:58:31.122Z,6.57
